Time;durP1;ratioP1;P1;durP2;ratioP2;P2;SDS_P1;SDS_P2;PMS_P1;PMS_P2;Temp;Humidity;BMP_temperature;BMP_pressure;BME280_temperature;BME280_humidity;BME280_pressure;Samples;Min_cycle;Max_cycle;Signal;HPM_P1;HPM_P2
2022/05/23 00:00:41;;;;;;;1.90;1.80;;;;;23.10;99776.00;;;;2071252;28;20218;-57
2022/05/23 00:01:42;;;;;;;1.70;1.60;;;;;23.10;99781.00;;;;2071233;28;20226;-57
2022/05/23 00:02:42;;;;;;;2.00;1.80;;;;;23.20;99783.00;;;;2071654;28;20671;-58
2022/05/23 00:03:42;;;;;;;2.33;2.10;;;;;23.10;99784.00;;;;2077312;28;21423;-58
2022/05/23 00:04:43;;;;;;;1.90;1.70;;;;;23.10;99784.00;;;;2079629;28;20670;-58
2022/05/23 00:05:43;;;;;;;2.40;1.60;;;;;23.10;99780.00;;;;2078776;28;20723;-58
2022/05/23 00:06:43;;;;;;;2.07;1.73;;;;;23.10;99788.00;;;;2078809;28;20241;-58
2022/05/23 00:07:46;;;;;;;2.40;2.20;;;;;23.10;99786.00;;;;2070353;28;20244;-58
2022/05/23 00:08:49;;;;;;;2.03;1.88;;;;;23.20;99774.00;;;;2071053;28;20643;-58
2022/05/23 00:09:52;;;;;;;2.45;1.90;;;;;23.10;99767.00;;;;2070266;28;20218;-58
2022/05/23 00:10:52;;;;;;;2.30;2.10;;;;;23.10;99777.00;;;;2076878;28;20670;-59
2022/05/23 00:11:53;;;;;;;2.50;2.23;;;;;23.10;99774.00;;;;2079031;28;20699;-59
2022/05/23 00:12:53;;;;;;;2.20;2.00;;;;;23.10;99752.00;;;;2071470;28;20605;-58
2022/05/23 00:13:53;;;;;;;1.93;1.73;;;;;23.10;99764.00;;;;2071307;28;20755;-57
2022/05/23 00:14:54;;;;;;;2.00;1.80;;;;;23.10;99760.00;;;;2071448;28;20229;-58
2022/05/23 00:15:54;;;;;;;1.60;1.50;;;;;23.10;99748.00;;;;2070683;28;20218;-59
2022/05/23 00:16:54;;;;;;;1.90;1.73;;;;;23.10;99748.00;;;;2071110;28;20218;-58
2022/05/23 00:17:55;;;;;;;2.20;1.70;;;;;23.10;99748.00;;;;2071439;28;20221;-58
2022/05/23 00:18:55;;;;;;;2.10;1.90;;;;;23.10;99745.00;;;;2070672;28;20306;-57
2022/05/23 00:19:55;;;;;;;2.03;1.80;;;;;23.10;99747.00;;;;2070766;28;20228;-59
2022/05/23 00:20:56;;;;;;;2.00;1.80;;;;;23.10;99755.00;;;;2070643;28;20218;-58
2022/05/23 00:21:56;;;;;;;2.53;1.80;;;;;23.10;99744.00;;;;2070948;28;20225;-58
2022/05/23 00:22:56;;;;;;;2.30;2.10;;;;;23.10;99747.00;;;;2071341;28;20206;-58
2022/05/23 00:23:57;;;;;;;2.30;2.10;;;;;23.10;99747.00;;;;2071417;28;20227;-58
2022/05/23 00:24:57;;;;;;;1.73;1.63;;;;;23.10;99747.00;;;;2071299;28;20214;-58
2022/05/23 00:25:58;;;;;;;2.17;1.97;;;;;23.10;99756.00;;;;2070411;28;20214;-58
2022/05/23 00:26:58;;;;;;;2.40;1.67;;;;;23.10;99747.00;;;;2070896;28;20630;-58
2022/05/23 00:27:58;;;;;;;2.00;1.80;;;;;23.10;99755.00;;;;2062520;28;20234;-58
2022/05/23 00:28:59;;;;;;;2.23;1.90;;;;;23.10;99747.00;;;;2062499;28;20218;-58
2022/05/23 00:29:59;;;;;;;1.80;1.70;;;;;23.10;99741.00;;;;2071094;28;20214;-58
2022/05/23 00:30:59;;;;;;;2.20;2.00;;;;;23.10;99745.00;;;;2071173;28;20251;-58
2022/05/23 00:35:56;;;;;;;2.20;2.00;;;;;23.10;99739.00;;;;2078635;28;20213;-56
2022/05/23 00:36:57;;;;;;;2.03;1.83;;;;;23.10;99746.00;;;;2073212;28;20304;-57
2022/05/23 00:37:58;;;;;;;2.23;2.03;;;;;23.10;99745.00;;;;2047312;28;20246;-56
2022/05/23 00:38:58;;;;;;;2.30;2.10;;;;;23.10;99742.00;;;;2052686;28;20219;-55
2022/05/23 00:39:58;;;;;;;2.00;1.80;;;;;23.10;99751.00;;;;2070297;28;20480;-58
2022/05/23 00:44:02;;;;;;;2.08;1.83;;;;;23.10;99747.00;;;;2067159;28;20693;-57
2022/05/23 00:45:03;;;;;;;2.20;2.05;;;;;23.10;99743.00;;;;2047788;28;20217;-59
2022/05/23 00:46:06;;;;;;;2.50;2.00;;;;;23.10;99733.00;;;;2037879;28;20240;-57
2022/05/23 00:47:20;;;;;;;2.00;1.90;;;;;23.10;99741.00;;;;2061940;28;20212;-58
2022/05/23 00:48:23;;;;;;;1.80;1.70;;;;;23.10;99737.00;;;;2070517;28;20213;-58
2022/05/23 00:49:26;;;;;;;1.83;1.73;;;;;23.10;99731.00;;;;2069760;28;20689;-58
2022/05/23 00:50:27;;;;;;;1.83;1.70;;;;;23.10;99737.00;;;;2069845;28;20218;-58
2022/05/23 00:51:27;;;;;;;2.00;1.80;;;;;23.10;99730.00;;;;2061751;28;20765;-58
2022/05/23 00:52:43;;;;;;;1.70;1.60;;;;;23.10;99725.00;;;;2069415;28;20222;-57
2022/05/23 00:53:54;;;;;;;2.30;2.10;;;;;23.10;99708.00;;;;2061513;28;20222;-57
2022/05/23 00:54:56;;;;;;;2.25;2.00;;;;;23.10;99715.00;;;;2056637;28;20581;-58
2022/05/23 00:55:56;;;;;;;1.70;1.60;;;;;23.10;99711.00;;;;2053493;28;20255;-56
2022/05/23 00:56:57;;;;;;;1.90;1.80;;;;;23.10;99712.00;;;;2061630;28;21191;-58
2022/05/23 00:58:01;;;;;;;2.23;2.03;;;;;23.10;99708.00;;;;2061305;28;20742;-55
2022/05/23 00:59:02;;;;;;;3.72;2.08;;;;;23.10;99702.00;;;;2050811;28;20656;-58
2022/05/23 01:00:05;;;;;;;2.00;1.80;;;;;23.10;99699.00;;;;2062023;28;20218;-58
2022/05/23 01:01:07;;;;;;;1.98;1.88;;;;;23.10;99695.00;;;;2062534;28;20278;-58
2022/05/23 01:02:09;;;;;;;2.30;1.88;;;;;23.10;99682.00;;;;2061684;28;20218;-56
2022/05/23 01:03:11;;;;;;;1.90;1.80;;;;;23.10;99697.00;;;;2062613;28;20239;-57
2022/05/23 01:04:13;;;;;;;2.28;2.08;;;;;23.10;99647.00;;;;2062111;28;20773;-58
2022/05/23 01:05:13;;;;;;;2.42;1.90;;;;;23.10;99698.00;;;;2053214;28;20228;-57
2022/05/23 01:06:13;;;;;;;2.30;2.10;;;;;23.10;99695.00;;;;2053577;28;20215;-57
2022/05/23 01:07:14;;;;;;;2.40;2.00;;;;;23.10;99694.00;;;;2065112;28;20202;-57
2022/05/23 01:08:15;;;;;;;2.20;2.00;;;;;23.10;99694.00;;;;2062448;28;20277;-56
2022/05/23 01:09:16;;;;;;;1.80;1.70;;;;;23.10;99685.00;;;;2066082;28;20239;-57
2022/05/23 01:10:16;;;;;;;2.60;2.03;;;;;23.10;99686.00;;;;2068322;28;20221;-60
2022/05/23 01:11:16;;;;;;;2.27;2.07;;;;;23.10;99685.00;;;;2064026;28;20285;-58
2022/05/23 01:12:17;;;;;;;2.70;2.20;;;;;23.10;99682.00;;;;2069332;28;20218;-59
2022/05/23 01:13:17;;;;;;;1.97;1.70;;;;;23.10;99695.00;;;;2062387;28;20215;-57
2022/05/23 01:14:18;;;;;;;1.70;1.60;;;;;23.10;99682.00;;;;2061640;28;20242;-58
2022/05/23 01:15:26;;;;;;;3.23;2.50;;;;;23.10;99691.00;;;;2069939;28;20225;-57
2022/05/23 01:16:27;;;;;;;1.67;1.58;;;;;23.10;99680.00;;;;2075249;28;20572;-57
2022/05/23 01:17:30;;;;;;;1.70;1.60;;;;;23.10;99674.00;;;;2078805;28;20228;-57
2022/05/23 01:18:31;;;;;;;2.20;2.00;;;;;23.10;99683.00;;;;2071351;28;20649;-55
2022/05/23 01:19:31;;;;;;;1.90;1.80;;;;;23.10;99691.00;;;;2067569;28;20210;-56
2022/05/23 01:20:32;;;;;;;2.33;2.13;;;;;23.10;99677.00;;;;2077569;28;20237;-59
2022/05/23 01:21:47;;;;;;;2.00;1.90;;;;;23.10;99678.00;;;;2070818;28;20225;-60
2022/05/23 01:23:06;;;;;;;1.80;1.70;;;;;23.10;99669.00;;;;2055678;28;20295;-62
2022/05/23 01:24:19;;;;;;;1.88;1.75;;;;;23.10;99679.00;;;;2069931;28;20205;-59
2022/05/23 01:25:33;;;;;;;2.28;2.08;;;;;23.10;99681.00;;;;2074696;28;20297;-58
2022/05/23 01:26:33;;;;;;;2.10;1.90;;;;;23.10;99679.00;;;;2068394;28;20276;-60
2022/05/23 01:27:33;;;;;;;1.63;1.53;;;;;23.10;99675.00;;;;2066962;28;20601;-57
2022/05/23 01:28:35;;;;;;;1.90;1.80;;;;;23.10;99679.00;;;;2074857;28;20252;-57
2022/05/23 01:29:35;;;;;;;2.25;2.05;;;;;23.10;99683.00;;;;2074101;28;20237;-58
2022/05/23 01:30:36;;;;;;;2.10;1.90;;;;;23.10;99675.00;;;;2071272;28;20895;-57
2022/05/23 01:31:37;;;;;;;2.20;2.00;;;;;23.10;99682.00;;;;2068523;28;20280;-60
2022/05/23 01:32:40;;;;;;;2.60;2.40;;;;;23.10;99682.00;;;;2066077;28;21042;-57
2022/05/23 01:33:40;;;;;;;2.33;2.13;;;;;23.10;99677.00;;;;2073993;28;20463;-61
2022/05/23 01:34:43;;;;;;;2.30;2.10;;;;;23.10;99671.00;;;;2077855;28;20204;-58
2022/05/23 01:35:43;;;;;;;2.05;1.95;;;;;23.10;99651.00;;;;2071581;28;20202;-57
2022/05/23 01:36:43;;;;;;;1.70;1.60;;;;;23.10;99660.00;;;;2078587;28;20585;-57
2022/05/23 01:37:44;;;;;;;2.23;2.03;;;;;23.10;99671.00;;;;2070134;28;20205;-58
2022/05/23 01:38:44;;;;;;;3.20;2.20;;;;;23.10;99667.00;;;;2078153;28;20213;-57
2022/05/23 01:39:44;;;;;;;2.17;1.97;;;;;23.10;99666.00;;;;2086326;28;20213;-57
2022/05/23 01:40:45;;;;;;;2.10;2.00;;;;;23.10;99666.00;;;;2078332;28;20252;-57
2022/05/23 01:41:45;;;;;;;2.40;2.20;;;;;23.10;99662.00;;;;2077369;28;20225;-57
2022/05/23 01:42:45;;;;;;;2.07;1.77;;;;;23.10;99674.00;;;;2077758;28;20222;-58
2022/05/23 01:43:46;;;;;;;1.87;1.70;;;;;23.10;99667.00;;;;2070031;28;20276;-58
2022/05/23 01:44:47;;;;;;;2.33;2.13;;;;;23.10;99670.00;;;;2070286;28;20210;-58
2022/05/23 01:45:47;;;;;;;1.73;1.63;;;;;23.10;99667.00;;;;2070873;28;20217;-60
2022/05/23 01:46:47;;;;;;;1.97;1.87;;;;;23.10;99661.00;;;;2073464;28;20217;-63
2022/05/23 01:47:48;;;;;;;1.83;1.73;;;;;23.10;99649.00;;;;2078638;28;20210;-60
2022/05/23 01:48:48;;;;;;;2.70;2.50;;;;;23.10;99653.00;;;;2070414;28;20209;-57
2022/05/23 01:49:48;;;;;;;2.13;1.93;;;;;23.10;99653.00;;;;2078101;28;20671;-57
2022/05/23 01:50:49;;;;;;;2.47;1.90;;;;;23.10;99647.00;;;;2078870;28;20251;-56
2022/05/23 01:51:49;;;;;;;2.50;2.00;;;;;23.10;99653.00;;;;2078660;28;20217;-59
2022/05/23 01:52:50;;;;;;;2.23;2.03;;;;;23.10;99645.00;;;;2078762;28;20225;-56
2022/05/23 01:53:51;;;;;;;1.70;1.60;;;;;23.10;99647.00;;;;2069065;28;20248;-58
2022/05/23 01:54:51;;;;;;;1.70;1.60;;;;;23.10;99646.00;;;;2063143;28;20218;-57
2022/05/23 01:55:52;;;;;;;2.80;2.30;;;;;23.10;99638.00;;;;2069051;28;20825;-56
2022/05/23 01:56:52;;;;;;;2.20;2.03;;;;;23.10;99636.00;;;;2069800;28;20646;-58
2022/05/23 01:57:52;;;;;;;2.30;2.10;;;;;23.10;99645.00;;;;2071279;28;20221;-58
2022/05/23 02:01:31;;;;;;;2.00;1.90;;;;;23.10;99639.00;;;;2074097;28;20225;-59
2022/05/23 02:02:31;;;;;;;2.30;2.10;;;;;23.10;99640.00;;;;2069422;28;20213;-58
2022/05/23 02:03:31;;;;;;;2.03;1.93;;;;;23.10;99635.00;;;;2078640;28;20641;-59
2022/05/23 02:04:32;;;;;;;2.27;2.07;;;;;23.10;99633.00;;;;2075635;28;20642;-57
2022/05/23 02:05:33;;;;;;;1.97;1.80;;;;;23.10;99632.00;;;;2073567;28;20574;-60
2022/05/23 02:06:33;;;;;;;2.55;2.28;;;;;23.10;99625.00;;;;2062312;28;20215;-59
2022/05/23 02:07:33;;;;;;;1.80;1.70;;;;;23.10;99627.00;;;;2062268;28;20238;-57
2022/05/23 02:08:34;;;;;;;2.20;2.00;;;;;23.10;99620.00;;;;2072806;28;20222;-57
2022/05/23 02:09:34;;;;;;;2.17;1.97;;;;;23.10;99616.00;;;;2074202;28;20272;-62
2022/05/23 02:10:35;;;;;;;2.23;2.00;;;;;23.10;99615.00;;;;2061607;28;20219;-58
2022/05/23 02:11:35;;;;;;;2.60;2.20;;;;;23.00;99613.00;;;;2066309;28;20218;-57
2022/05/23 02:12:36;;;;;;;2.33;2.13;;;;;23.10;99612.00;;;;2070547;28;20218;-56
2022/05/23 02:13:38;;;;;;;2.10;1.90;;;;;23.10;99609.00;;;;2069773;28;20296;-62
2022/05/23 02:14:38;;;;;;;2.40;2.20;;;;;23.10;99608.00;;;;2073268;28;20527;-61
2022/05/23 02:15:39;;;;;;;1.70;1.60;;;;;23.10;99602.00;;;;2068153;28;20693;-60
2022/05/23 02:16:39;;;;;;;2.30;2.10;;;;;23.10;99597.00;;;;2054388;28;20806;-58
2022/05/23 02:17:39;;;;;;;1.97;1.80;;;;;23.10;99600.00;;;;2057659;28;20676;-57
2022/05/23 02:18:40;;;;;;;2.40;2.20;;;;;23.10;99593.00;;;;2069904;28;20904;-57
2022/05/23 02:19:40;;;;;;;2.30;2.10;;;;;23.10;99601.00;;;;2073884;28;20207;-57
2022/05/23 02:20:40;;;;;;;2.70;2.30;;;;;23.00;99597.00;;;;2078839;28;20586;-57
2022/05/23 02:21:41;;;;;;;2.20;1.97;;;;;23.10;99592.00;;;;2065540;28;20220;-61
2022/05/23 02:22:41;;;;;;;2.00;1.90;;;;;23.00;99591.00;;;;2050905;28;20620;-57
2022/05/23 02:23:42;;;;;;;1.70;1.60;;;;;23.00;99590.00;;;;2061053;28;20587;-58
2022/05/23 02:24:42;;;;;;;2.70;2.23;;;;;23.10;99591.00;;;;2060430;28;20217;-62
2022/05/23 02:25:42;;;;;;;1.80;1.70;;;;;23.10;99591.00;;;;2069016;28;20220;-58
2022/05/23 02:26:43;;;;;;;2.30;1.80;;;;;23.00;99588.00;;;;2071665;28;20293;-58
2022/05/23 02:27:43;;;;;;;2.23;2.03;;;;;23.00;99591.00;;;;2076178;28;20206;-58
2022/05/23 02:28:43;;;;;;;1.90;1.80;;;;;23.00;99594.00;;;;2076051;28;20255;-58
2022/05/23 02:29:44;;;;;;;2.10;1.90;;;;;23.10;99590.00;;;;2077903;28;20210;-58
2022/05/23 02:30:45;;;;;;;2.17;2.07;;;;;23.10;99596.00;;;;2077571;28;20222;-57
2022/05/23 02:31:48;;;;;;;2.38;2.15;;;;;23.00;99586.00;;;;2077791;28;20809;-59
2022/05/23 02:32:49;;;;;;;2.50;1.90;;;;;23.00;99584.00;;;;2077156;28;20309;-57
2022/05/23 02:33:49;;;;;;;3.03;2.37;;;;;23.10;99592.00;;;;2078765;28;20221;-58
2022/05/23 02:34:49;;;;;;;2.13;1.97;;;;;23.10;99597.00;;;;2079329;28;20551;-57
2022/05/23 02:35:50;;;;;;;2.40;2.20;;;;;23.00;99575.00;;;;2078804;28;20573;-58
2022/05/23 02:36:50;;;;;;;2.30;2.10;;;;;23.00;99577.00;;;;2075869;28;20623;-58
2022/05/23 02:37:50;;;;;;;3.33;2.03;;;;;23.00;99584.00;;;;2062459;28;20591;-58
2022/05/23 02:38:51;;;;;;;2.50;2.30;;;;;23.00;99577.00;;;;2070522;28;20218;-58
2022/05/23 02:39:51;;;;;;;2.20;2.00;;;;;23.00;99585.00;;;;2070719;28;20226;-58
2022/05/23 02:40:51;;;;;;;2.47;2.27;;;;;23.00;99581.00;;;;2070404;28;20214;-58
2022/05/23 02:41:52;;;;;;;2.00;1.90;;;;;23.00;99578.00;;;;2070994;28;20221;-58
2022/05/23 02:42:52;;;;;;;2.00;1.90;;;;;23.00;99581.00;;;;2062847;28;20214;-58
2022/05/23 02:43:53;;;;;;;2.20;2.10;;;;;23.00;99575.00;;;;2071182;28;20203;-58
2022/05/23 02:44:53;;;;;;;1.80;1.70;;;;;23.00;99573.00;;;;2067340;28;20275;-57
2022/05/23 02:45:53;;;;;;;2.10;2.00;;;;;23.10;99573.00;;;;2078849;28;20381;-57
2022/05/23 02:46:54;;;;;;;2.00;1.80;;;;;23.00;99569.00;;;;2071018;28;20261;-58
2022/05/23 02:47:54;;;;;;;2.30;1.92;;;;;23.00;99574.00;;;;2071525;28;20218;-58
2022/05/23 02:48:55;;;;;;;2.20;2.00;;;;;23.00;99574.00;;;;2071959;28;20276;-58
2022/05/23 02:49:55;;;;;;;2.20;2.00;;;;;23.00;99573.00;;;;2071413;28;20299;-58
2022/05/23 02:50:56;;;;;;;3.43;2.00;;;;;23.00;99575.00;;;;2071315;28;20210;-58
2022/05/23 02:51:56;;;;;;;2.10;1.90;;;;;23.00;99582.00;;;;2072137;28;20229;-58
2022/05/23 02:52:56;;;;;;;2.20;1.90;;;;;23.00;99574.00;;;;2070697;28;20240;-58
2022/05/23 02:53:57;;;;;;;2.33;2.13;;;;;23.00;99576.00;;;;2071197;28;20226;-57
2022/05/23 02:54:57;;;;;;;2.40;1.93;;;;;23.00;99578.00;;;;2071679;28;20217;-57
2022/05/23 02:55:57;;;;;;;2.27;2.07;;;;;23.10;99576.00;;;;2071553;28;20601;-57
2022/05/23 02:56:58;;;;;;;2.23;2.03;;;;;23.00;99577.00;;;;2071260;28;20264;-57
2022/05/23 02:57:58;;;;;;;1.80;1.70;;;;;23.00;99577.00;;;;2071299;28;20218;-58
2022/05/23 02:58:58;;;;;;;2.50;2.30;;;;;23.00;99569.00;;;;2069448;28;20284;-58
2022/05/23 03:00:00;;;;;;;2.00;1.90;;;;;23.00;99573.00;;;;2070965;28;20276;-57
2022/05/23 03:01:00;;;;;;;1.98;1.88;;;;;23.00;99571.00;;;;2071321;28;20265;-57
2022/05/23 03:03:19;;;;;;;2.17;1.98;;;;;23.00;99571.00;;;;2071275;28;20214;-58
2022/05/23 03:04:19;;;;;;;1.80;1.70;;;;;23.00;99565.00;;;;2071707;28;20214;-58
2022/05/23 03:05:20;;;;;;;2.57;2.37;;;;;23.00;99567.00;;;;2075603;28;20221;-58
2022/05/23 03:06:20;;;;;;;2.50;2.20;;;;;23.00;99556.00;;;;2079267;28;20225;-57
2022/05/23 03:07:21;;;;;;;2.53;2.13;;;;;23.00;99560.00;;;;2079353;28;20205;-58
2022/05/23 03:08:22;;;;;;;2.40;2.20;;;;;23.00;99548.00;;;;2079432;28;20275;-57
2022/05/23 03:09:23;;;;;;;2.10;1.90;;;;;23.00;99550.00;;;;2071146;28;20596;-58
2022/05/23 03:10:23;;;;;;;1.80;1.70;;;;;23.00;99549.00;;;;2079172;28;20213;-57
2022/05/23 03:11:24;;;;;;;3.27;2.07;;;;;23.00;99549.00;;;;2079860;28;20262;-58
2022/05/23 03:12:26;;;;;;;2.10;2.00;;;;;23.00;99549.00;;;;2079936;28;20271;-59
2022/05/23 03:13:26;;;;;;;2.10;1.95;;;;;23.00;99549.00;;;;2079131;28;20206;-58
2022/05/23 03:14:27;;;;;;;2.20;2.10;;;;;23.00;99547.00;;;;2071092;28;20218;-58
2022/05/23 03:15:28;;;;;;;2.43;2.23;;;;;23.00;99545.00;;;;2078557;28;20243;-58
2022/05/23 03:16:29;;;;;;;2.33;2.13;;;;;23.00;99534.00;;;;2079262;28;20256;-58
2022/05/23 03:17:29;;;;;;;2.13;1.97;;;;;23.00;99538.00;;;;2071129;28;20206;-58
2022/05/23 03:18:29;;;;;;;2.43;2.20;;;;;23.00;99532.00;;;;2079416;28;20210;-58
2022/05/23 03:19:30;;;;;;;2.57;2.07;;;;;23.00;99538.00;;;;2079931;28;20213;-58
2022/05/23 03:20:30;;;;;;;1.90;1.80;;;;;23.00;99538.00;;;;2073271;28;20215;-58
2022/05/23 03:26:58;;;;;;;2.30;2.03;;;;;23.00;99517.00;;;;2079474;28;20217;-58
2022/05/23 03:27:59;;;;;;;2.85;2.13;;;;;23.00;99514.00;;;;2079759;28;20293;-58
2022/05/23 03:29:00;;;;;;;2.40;2.20;;;;;23.00;99510.00;;;;2079007;28;20210;-58
2022/05/23 03:30:00;;;;;;;2.40;1.83;;;;;23.00;99505.00;;;;2071022;28;20277;-59
2022/05/23 03:31:03;;;;;;;2.40;2.10;;;;;22.80;99501.00;;;;2078419;28;20291;-58
2022/05/23 03:32:04;;;;;;;2.40;2.20;;;;;23.00;99492.00;;;;2070928;28;20198;-58
2022/05/23 03:33:04;;;;;;;2.03;1.90;;;;;23.00;99495.00;;;;2070775;28;20972;-57
2022/05/23 03:34:05;;;;;;;2.10;1.80;;;;;23.00;99493.00;;;;2079829;28;20218;-57
2022/05/23 03:35:07;;;;;;;3.40;2.37;;;;;23.00;99492.00;;;;2079776;28;20240;-57
2022/05/23 03:36:08;;;;;;;2.50;2.30;;;;;23.00;99486.00;;;;2078695;28;20800;-58
2022/05/23 03:37:09;;;;;;;2.13;2.03;;;;;23.00;99491.00;;;;2079138;28;20825;-58
2022/05/23 03:38:09;;;;;;;2.00;1.90;;;;;23.00;99487.00;;;;2079929;28;20271;-58
2022/05/23 03:39:10;;;;;;;2.87;2.27;;;;;23.00;99474.00;;;;2079092;28;20249;-58
2022/05/23 03:40:10;;;;;;;2.30;2.10;;;;;23.00;99484.00;;;;2070747;28;20234;-58
2022/05/23 03:41:11;;;;;;;1.90;1.80;;;;;23.00;99497.00;;;;2078878;28;20304;-58
2022/05/23 03:42:11;;;;;;;2.17;2.03;;;;;23.00;99493.00;;;;2078426;28;20237;-57
2022/05/23 03:43:11;;;;;;;2.30;2.20;;;;;23.00;99487.00;;;;2078356;28;20217;-58
2022/05/23 03:44:12;;;;;;;1.93;1.83;;;;;23.00;99487.00;;;;2079016;28;20265;-57
2022/05/23 03:45:12;;;;;;;2.40;2.20;;;;;23.00;99487.00;;;;2077375;28;20305;-58
2022/05/23 03:46:13;;;;;;;2.00;1.90;;;;;23.00;99487.00;;;;2078002;28;20306;-58
2022/05/23 03:47:13;;;;;;;2.37;2.17;;;;;23.00;99483.00;;;;2079345;28;25004;-58
2022/05/23 03:48:14;;;;;;;1.90;1.80;;;;;23.00;99486.00;;;;2079764;28;20229;-58
2022/05/23 03:49:14;;;;;;;2.00;1.90;;;;;23.00;99476.00;;;;2079487;28;20218;-58
2022/05/23 03:50:14;;;;;;;2.30;2.10;;;;;23.00;99473.00;;;;2079607;28;20222;-58
2022/05/23 03:51:15;;;;;;;2.27;2.13;;;;;23.00;99475.00;;;;2079414;28;20221;-58
2022/05/23 03:52:15;;;;;;;2.20;2.10;;;;;23.00;99470.00;;;;2079724;28;20209;-58
2022/05/23 03:53:15;;;;;;;2.37;2.17;;;;;23.00;99471.00;;;;2076196;28;20224;-58
2022/05/23 03:54:16;;;;;;;1.90;1.80;;;;;23.00;99497.00;;;;2086981;28;20217;-58
2022/05/23 03:55:17;;;;;;;2.10;1.90;;;;;23.00;99468.00;;;;2078922;28;20223;-58
2022/05/23 03:56:18;;;;;;;2.05;1.95;;;;;23.00;99468.00;;;;2079107;28;20224;-58
2022/05/23 03:57:18;;;;;;;2.13;1.93;;;;;23.00;99467.00;;;;2078638;28;20237;-58
2022/05/23 03:58:18;;;;;;;1.90;1.80;;;;;23.00;99461.00;;;;2076861;28;20272;-58
2022/05/23 03:59:19;;;;;;;2.60;2.40;;;;;23.00;99463.00;;;;2071706;28;20213;-58
2022/05/23 04:00:20;;;;;;;2.40;2.20;;;;;23.00;99461.00;;;;2071254;28;20284;-58
2022/05/23 04:01:23;;;;;;;2.37;2.17;;;;;23.00;99452.00;;;;2071522;28;20453;-58
2022/05/23 04:02:24;;;;;;;2.13;2.03;;;;;23.00;99459.00;;;;2062511;28;20211;-58
2022/05/23 04:03:24;;;;;;;1.95;1.85;;;;;23.00;99461.00;;;;2062238;28;20219;-58
2022/05/23 04:04:28;;;;;;;1.83;1.73;;;;;23.00;99458.00;;;;2070869;28;20206;-58
2022/05/23 04:05:28;;;;;;;2.13;2.00;;;;;23.00;99460.00;;;;2070257;28;20210;-58
2022/05/23 04:06:29;;;;;;;2.30;2.10;;;;;23.00;99457.00;;;;2071396;28;20225;-58
2022/05/23 04:07:30;;;;;;;2.37;2.17;;;;;23.00;99459.00;;;;2070627;28;20206;-58
2022/05/23 04:08:30;;;;;;;2.40;2.17;;;;;23.00;99452.00;;;;2070699;28;20744;-58
2022/05/23 04:09:31;;;;;;;2.17;1.97;;;;;23.00;99459.00;;;;2071278;28;20453;-58
2022/05/23 04:10:31;;;;;;;2.03;1.90;;;;;23.00;99460.00;;;;2071305;28;20214;-58
2022/05/23 04:11:31;;;;;;;2.40;2.17;;;;;23.00;99457.00;;;;2071262;28;20642;-58
2022/05/23 04:12:32;;;;;;;2.43;2.23;;;;;23.00;99455.00;;;;2068952;28;20584;-58
2022/05/23 04:13:32;;;;;;;2.10;2.00;;;;;23.00;99454.00;;;;2071197;28;20578;-58
2022/05/23 04:14:32;;;;;;;2.00;1.90;;;;;23.00;99465.00;;;;2054443;28;20223;-58
2022/05/23 04:15:33;;;;;;;2.10;1.90;;;;;23.00;99461.00;;;;2053754;28;20219;-58
2022/05/23 04:16:33;;;;;;;1.90;1.80;;;;;23.00;99453.00;;;;2070163;28;20297;-59
2022/05/23 04:17:34;;;;;;;2.10;2.00;;;;;23.00;99455.00;;;;2079155;28;20216;-58
2022/05/23 04:18:36;;;;;;;2.50;2.30;;;;;23.00;99452.00;;;;2079486;28;20313;-59
2022/05/23 04:19:37;;;;;;;2.00;1.80;;;;;23.00;99435.00;;;;2078638;28;20608;-58
2022/05/23 04:20:37;;;;;;;2.10;1.90;;;;;23.00;99447.00;;;;2070736;28;20277;-58
2022/05/23 04:21:41;;;;;;;2.50;2.30;;;;;23.00;99449.00;;;;2070060;28;20273;-58
2022/05/23 04:22:41;;;;;;;2.00;1.90;;;;;23.00;99451.00;;;;2070919;28;20453;-57
2022/05/23 04:23:42;;;;;;;2.27;2.07;;;;;23.00;99451.00;;;;2074248;28;20576;-57
2022/05/23 04:24:43;;;;;;;2.23;2.03;;;;;23.00;99440.00;;;;2071235;28;20576;-58
2022/05/23 04:25:44;;;;;;;1.92;1.83;;;;;23.00;99449.00;;;;2070691;28;20214;-58
2022/05/23 04:26:45;;;;;;;2.30;2.10;;;;;23.00;99443.00;;;;2071114;28;20225;-58
2022/05/23 04:27:45;;;;;;;2.30;2.10;;;;;23.00;99385.00;;;;2062025;28;20634;-58
2022/05/23 04:28:46;;;;;;;2.03;1.93;;;;;23.00;99440.00;;;;2062431;28;20215;-58
2022/05/23 04:29:46;;;;;;;2.03;1.93;;;;;23.00;99439.00;;;;2071317;28;20650;-57
2022/05/23 04:30:47;;;;;;;1.70;1.60;;;;;23.00;99440.00;;;;2071256;28;20284;-58
2022/05/23 04:31:47;;;;;;;2.23;2.10;;;;;23.00;99434.00;;;;2070831;28;20463;-57
2022/05/23 04:35:25;;;;;;;2.33;2.13;;;;;23.00;99425.00;;;;2071060;28;20238;-58
2022/05/23 04:36:26;;;;;;;2.10;2.00;;;;;23.00;99423.00;;;;2064533;28;20242;-58
2022/05/23 04:37:26;;;;;;;2.40;2.20;;;;;23.00;99426.00;;;;2061838;28;20230;-58
2022/05/23 04:38:27;;;;;;;2.00;1.90;;;;;23.00;99426.00;;;;2070657;28;20219;-57
2022/05/23 04:39:27;;;;;;;2.50;2.30;;;;;23.00;99428.00;;;;2070535;28;20288;-58
2022/05/23 04:40:28;;;;;;;1.90;1.80;;;;;22.90;99426.00;;;;2070870;28;20214;-58
2022/05/23 04:41:28;;;;;;;2.20;2.00;;;;;23.00;99416.00;;;;2076099;28;20308;-58
2022/05/23 04:42:28;;;;;;;2.17;2.07;;;;;23.00;99426.00;;;;2070028;28;20301;-58
2022/05/23 04:43:29;;;;;;;2.27;2.17;;;;;23.00;99424.00;;;;2077211;28;20221;-58
2022/05/23 04:44:29;;;;;;;1.73;1.63;;;;;23.00;99423.00;;;;2077726;28;20251;-58
2022/05/23 04:45:30;;;;;;;2.43;2.27;;;;;23.00;99423.00;;;;2069095;28;20214;-57
2022/05/23 04:46:30;;;;;;;2.47;2.20;;;;;23.00;99416.00;;;;2069880;28;20217;-58
2022/05/23 04:50:08;;;;;;;2.53;2.15;;;;;23.00;99422.00;;;;2071119;28;20222;-58
2022/05/23 04:51:09;;;;;;;2.27;2.17;;;;;23.00;99425.00;;;;2070887;28;20687;-59
2022/05/23 04:52:10;;;;;;;2.40;2.30;;;;;23.00;99423.00;;;;2071154;28;20453;-58
2022/05/23 04:53:10;;;;;;;2.30;1.90;;;;;23.00;99423.00;;;;2069875;28;20210;-58
2022/05/23 04:54:10;;;;;;;2.10;2.00;;;;;23.00;99429.00;;;;2070021;28;20214;-58
2022/05/23 04:55:11;;;;;;;2.33;2.10;;;;;23.00;99418.00;;;;2071091;28;20237;-58
2022/05/23 04:56:12;;;;;;;2.25;2.05;;;;;23.00;99422.00;;;;2069920;28;20229;-57
2022/05/23 04:57:13;;;;;;;2.10;1.90;;;;;23.00;99418.00;;;;2071028;28;20284;-58
2022/05/23 04:58:13;;;;;;;2.23;2.03;;;;;23.00;99424.00;;;;2070948;28;20228;-58
2022/05/23 04:59:13;;;;;;;2.27;2.07;;;;;23.00;99421.00;;;;2070353;28;20207;-57
2022/05/23 05:00:18;;;;;;;2.40;2.20;;;;;23.00;99421.00;;;;2070248;28;20211;-58
2022/05/23 05:01:21;;;;;;;1.90;1.80;;;;;23.00;99418.00;;;;2070343;28;20214;-58
2022/05/23 05:02:21;;;;;;;2.13;1.92;;;;;23.00;99366.00;;;;2062996;28;20672;-57
2022/05/23 05:03:21;;;;;;;1.80;1.70;;;;;23.00;99420.00;;;;2070258;28;20222;-58
2022/05/23 05:04:22;;;;;;;2.60;2.30;;;;;23.00;99422.00;;;;2070935;28;20626;-58
2022/05/23 05:05:22;;;;;;;2.33;1.80;;;;;23.00;99414.00;;;;2070452;28;20218;-57
2022/05/23 05:06:23;;;;;;;2.53;2.27;;;;;23.00;99417.00;;;;2070824;28;20219;-58
2022/05/23 05:07:23;;;;;;;2.35;2.15;;;;;23.00;99359.00;;;;2070012;28;20218;-58
2022/05/23 05:08:24;;;;;;;2.30;2.07;;;;;23.00;99412.00;;;;2060664;28;20702;-58
2022/05/23 05:09:24;;;;;;;1.97;1.87;;;;;23.00;99407.00;;;;2078527;28;20746;-58
2022/05/23 05:10:25;;;;;;;1.97;1.87;;;;;23.00;99407.00;;;;2072181;28;20622;-57
2022/05/23 05:11:25;;;;;;;1.77;1.67;;;;;23.00;99407.00;;;;2069323;28;20222;-58
2022/05/23 05:12:25;;;;;;;2.40;2.20;;;;;23.00;99408.00;;;;2069375;28;20260;-57
2022/05/23 05:13:28;;;;;;;2.10;2.00;;;;;23.00;99399.00;;;;2069349;28;20226;-58
2022/05/23 05:14:28;;;;;;;3.40;2.13;;;;;23.00;99406.00;;;;2069101;28;20214;-58
2022/05/23 05:15:28;;;;;;;2.20;2.00;;;;;23.00;99403.00;;;;2069165;28;20272;-58
2022/05/23 05:16:29;;;;;;;2.27;2.07;;;;;23.00;99398.00;;;;2075389;28;20217;-58
2022/05/23 05:17:29;;;;;;;2.37;2.17;;;;;23.00;99401.00;;;;2078866;28;20673;-58
2022/05/23 05:18:30;;;;;;;1.80;1.70;;;;;23.00;99393.00;;;;2078860;28;20701;-58
2022/05/23 05:19:31;;;;;;;2.45;2.10;;;;;23.00;99385.00;;;;2079108;28;20223;-58
2022/05/23 05:20:31;;;;;;;3.13;1.90;;;;;22.90;99385.00;;;;2078744;28;20221;-58
2022/05/23 05:21:31;;;;;;;1.80;1.70;;;;;23.00;99381.00;;;;2079073;28;20304;-58
2022/05/23 05:22:32;;;;;;;2.10;1.90;;;;;23.00;99378.00;;;;2078935;28;20621;-58
2022/05/23 05:23:32;;;;;;;2.50;2.30;;;;;23.00;99382.00;;;;2078604;28;20240;-58
2022/05/23 05:24:32;;;;;;;2.17;1.97;;;;;23.00;99381.00;;;;2078931;28;20213;-57
2022/05/23 05:25:33;;;;;;;2.07;1.97;;;;;23.00;99382.00;;;;2072172;28;20241;-58
2022/05/23 05:26:33;;;;;;;2.10;2.00;;;;;23.00;99378.00;;;;2070103;28;20206;-58
2022/05/23 05:27:34;;;;;;;2.23;1.70;;;;;23.00;99387.00;;;;2070534;28;20214;-58